createdAt,value
2019-01-11T00:00:52.531Z,14.50
2019-01-11T00:03:21.017Z,10.80
2019-01-11T00:05:49.748Z,10.50
2019-01-11T00:08:18.321Z,11.28
2019-01-11T00:10:46.869Z,10.70
2019-01-11T00:13:16.666Z,14.15
2019-01-11T00:15:45.206Z,8.50
2019-01-11T00:18:13.812Z,10.25
2019-01-11T00:20:49.786Z,8.95
2019-01-11T00:23:14.229Z,11.70
2019-01-11T00:25:42.707Z,10.93
2019-01-11T00:28:11.345Z,12.73
2019-01-11T00:30:39.955Z,9.58
2019-01-11T00:33:11.593Z,10.15
2019-01-11T00:35:40.166Z,8.60
2019-01-11T00:38:08.819Z,12.58
2019-01-11T00:40:37.304Z,9.90
2019-01-11T00:43:05.849Z,14.47
2019-01-11T00:45:34.545Z,16.80
2019-01-11T00:48:04.779Z,14.10
2019-01-11T00:50:33.316Z,13.50
2019-01-11T00:53:01.906Z,17.30
2019-01-11T00:55:30.471Z,18.48
2019-01-11T00:57:59.263Z,20.95
2019-01-11T01:00:27.949Z,16.55
2019-01-11T01:02:56.582Z,20.08
2019-01-11T01:05:25.576Z,21.45
2019-01-11T01:07:56.076Z,16.35
2019-01-11T01:10:24.917Z,19.45
2019-01-11T01:12:53.529Z,16.60
2019-01-11T01:15:24.346Z,18.25
2019-01-11T01:17:52.887Z,18.77
2019-01-11T01:20:22.061Z,18.80
2019-01-11T01:22:51.464Z,17.50
2019-01-11T01:25:20.213Z,17.05
2019-01-11T01:27:48.995Z,16.20
2019-01-11T01:30:19.279Z,15.55
2019-01-11T01:32:50.243Z,18.07
2019-01-11T01:35:18.884Z,15.10
2019-01-11T01:37:48.139Z,13.88
2019-01-11T01:40:17.596Z,17.45
2019-01-11T01:42:47.592Z,13.00
2019-01-11T01:45:17.944Z,13.70
2019-01-11T01:47:47.237Z,10.93
2019-01-11T01:50:15.883Z,13.62
2019-01-11T01:52:45.973Z,13.25
2019-01-11T01:55:15.448Z,14.03
2019-01-11T01:57:44.096Z,12.35
2019-01-11T02:00:15.715Z,11.33
2019-01-11T02:02:44.887Z,12.55
2019-01-11T02:05:16.086Z,13.55
2019-01-11T02:07:44.672Z,10.53
2019-01-11T02:10:14.900Z,14.28
2019-01-11T02:12:44.269Z,12.18
2019-01-11T02:15:13.949Z,12.45
2019-01-11T02:17:44.239Z,15.45
2019-01-11T02:20:17.495Z,16.17
2019-01-11T02:22:46.247Z,11.33
2019-01-11T02:25:15.200Z,11.95
2019-01-11T02:27:46.199Z,12.25
2019-01-11T02:30:21.682Z,11.63
2019-01-11T02:32:52.943Z,12.00
2019-01-11T02:35:21.239Z,14.43
2019-01-11T02:37:49.790Z,12.73
2019-01-11T02:40:18.513Z,14.20
2019-01-11T02:42:48.675Z,10.23
2019-01-11T02:45:19.038Z,13.08
2019-01-11T02:47:48.326Z,12.20
2019-01-11T02:50:18.771Z,10.32
2019-01-11T02:52:48.145Z,11.75
2019-01-11T02:55:17.774Z,11.12
2019-01-11T02:57:48.595Z,10.55
2019-01-11T03:00:19.955Z,9.13
2019-01-11T03:02:51.834Z,9.75
2019-01-11T03:05:21.655Z,7.95
2019-01-11T03:07:50.359Z,10.03
2019-01-11T03:10:21.985Z,8.75
2019-01-11T03:12:50.691Z,8.48
2019-01-11T03:15:19.579Z,9.98
2019-01-11T03:17:49.622Z,10.10
2019-01-11T03:20:20.599Z,10.53
2019-01-11T03:22:49.223Z,11.00
2019-01-11T03:25:17.736Z,11.20
2019-01-11T03:27:46.858Z,7.95
2019-01-11T03:30:20.888Z,8.70
2019-01-11T03:32:51.873Z,9.40
2019-01-11T03:35:21.028Z,11.88
2019-01-11T03:37:49.937Z,10.05
2019-01-11T03:40:23.473Z,9.63
2019-01-11T03:42:55.188Z,8.98
2019-01-11T03:45:24.694Z,8.60
2019-01-11T03:47:54.720Z,11.78
2019-01-11T03:50:27.067Z,12.73
2019-01-11T03:52:59.596Z,9.00
2019-01-11T03:55:28.139Z,10.03
2019-01-11T03:57:59.358Z,13.15
2019-01-11T04:00:29.481Z,11.63
2019-01-11T04:02:58.700Z,8.80
2019-01-11T04:05:30.116Z,10.20
2019-01-11T04:07:58.781Z,8.88
2019-01-11T04:10:27.414Z,9.33
2019-01-11T04:12:57.703Z,9.23
2019-01-11T04:15:26.436Z,9.23
2019-01-11T04:18:13.595Z,8.23
2019-01-11T04:20:42.211Z,8.50
2019-01-11T04:23:10.822Z,7.78
2019-01-11T04:25:39.894Z,7.80
2019-01-11T04:28:11.587Z,8.13
2019-01-11T04:30:40.285Z,9.68
2019-01-11T04:33:09.436Z,8.45
2019-01-11T04:35:39.388Z,10.20
2019-01-11T04:38:10.362Z,11.15
2019-01-11T04:40:39.897Z,10.15
2019-01-11T04:43:08.637Z,9.08
2019-01-11T04:45:38.959Z,9.88
2019-01-11T04:48:11.003Z,7.65
2019-01-11T04:50:39.955Z,7.17
2019-01-11T04:53:09.218Z,6.80
2019-01-11T04:55:54.993Z,9.60
2019-01-11T04:58:25.319Z,7.72
2019-01-11T05:00:53.978Z,8.40
2019-01-11T05:03:25.780Z,10.98
2019-01-11T05:05:55.643Z,7.08
2019-01-11T05:08:24.266Z,10.90
2019-01-11T05:10:52.881Z,8.15
2019-01-11T05:13:27.354Z,6.37
2019-01-11T05:15:57.384Z,9.20
2019-01-11T05:18:26.066Z,10.10
2019-01-11T05:21:00.175Z,12.68
2019-01-11T05:23:30.227Z,10.45
2019-01-11T05:25:58.795Z,13.50
2019-01-11T05:28:34.559Z,11.50
2019-01-11T05:31:04.191Z,14.78
2019-01-11T05:33:32.816Z,13.90
2019-01-11T05:36:04.383Z,14.20
2019-01-11T05:38:37.816Z,13.05
2019-01-11T05:41:08.114Z,16.05
2019-01-11T05:43:36.764Z,14.75
2019-01-11T05:46:11.490Z,12.13
2019-01-11T05:48:40.538Z,12.35
2019-01-11T05:51:14.810Z,14.25
2019-01-11T05:53:46.625Z,12.23
2019-01-11T05:56:16.094Z,12.88
2019-01-11T05:58:50.940Z,11.57
2019-01-11T06:01:24.991Z,12.20
2019-01-11T06:03:51.651Z,14.65
2019-01-11T06:13:03.247Z,12.58
2019-01-11T07:53:35.071Z,12.28
2019-01-11T07:56:05.275Z,16.42
2019-01-11T07:58:33.796Z,12.40
2019-01-11T08:01:02.494Z,12.40
2019-01-11T08:03:31.313Z,10.98
2019-01-11T08:05:59.947Z,10.50
2019-01-11T08:08:28.591Z,9.40
2019-01-11T08:10:57.157Z,9.05
2019-01-11T08:13:27.965Z,10.85
2019-01-11T08:15:56.149Z,10.80
2019-01-11T08:18:24.886Z,9.50
2019-01-11T08:20:56.289Z,9.25
2019-01-11T08:23:23.877Z,9.45
2019-01-11T08:25:52.419Z,11.03
2019-01-11T08:28:21.918Z,9.30
2019-01-11T08:30:50.486Z,9.90
2019-01-11T08:33:18.966Z,12.00
2019-01-11T08:35:47.509Z,10.63
2019-01-11T08:38:16.186Z,9.30
2019-01-11T08:40:44.711Z,10.68
2019-01-11T08:46:44.695Z,10.90
2019-01-11T08:49:13.404Z,9.88
2019-01-11T08:51:41.981Z,9.13
2019-01-11T08:54:10.540Z,10.35
2019-01-11T08:56:40.963Z,9.88
2019-01-11T08:59:10.198Z,9.90
2019-01-11T09:01:38.808Z,9.65
2019-01-11T09:04:07.392Z,10.82
2019-01-11T09:06:36.098Z,10.58
2019-01-11T09:09:07.572Z,10.05
2019-01-11T09:11:36.057Z,9.75
2019-01-11T09:14:05.054Z,10.98
2019-01-11T09:16:33.632Z,9.98
2019-01-11T09:19:03.453Z,10.18
2019-01-11T09:21:32.088Z,10.90
2019-01-11T09:24:00.593Z,12.07
2019-01-11T09:26:29.218Z,13.60
2019-01-11T09:28:57.820Z,12.43
2019-01-11T09:31:26.377Z,12.43
2019-01-11T09:33:54.857Z,11.48
2019-01-11T09:36:23.589Z,10.55
2019-01-11T09:38:52.134Z,11.97
2019-01-11T09:41:20.811Z,10.63
2019-01-11T09:43:49.270Z,10.43
2019-01-11T09:46:17.778Z,10.08
2019-01-11T09:48:46.235Z,9.98
2019-01-11T09:51:15.842Z,14.95
2019-01-11T09:53:44.641Z,10.10
2019-01-11T09:56:13.142Z,10.68
2019-01-11T09:58:41.668Z,9.80
2019-01-11T10:01:10.259Z,10.05
2019-01-11T10:03:38.782Z,10.50
2019-01-11T10:06:07.335Z,10.32
2019-01-11T10:08:35.938Z,9.30
2019-01-11T10:11:04.534Z,9.13
2019-01-11T10:13:33.028Z,9.15
2019-01-11T10:16:01.646Z,9.40
2019-01-11T10:18:30.196Z,12.65
2019-01-11T10:20:58.680Z,8.90
2019-01-11T10:23:27.254Z,9.78
2019-01-11T10:25:55.720Z,9.23
2019-01-11T10:28:24.295Z,8.95
2019-01-11T10:30:52.770Z,15.38
2019-01-11T10:33:21.351Z,9.75
2019-01-11T10:35:50.178Z,9.40
2019-01-11T10:38:18.650Z,10.75
2019-01-11T10:40:47.206Z,13.00
2019-01-11T10:43:15.679Z,10.48
2019-01-11T10:45:45.891Z,10.05
2019-01-11T10:48:14.599Z,9.98
2019-01-11T10:50:43.594Z,10.00
2019-01-11T10:53:13.992Z,10.25
2019-01-11T10:55:43.123Z,9.80
2019-01-11T10:58:11.692Z,10.78
2019-01-11T11:00:40.891Z,10.28
2019-01-11T11:03:09.521Z,9.98
2019-01-11T11:05:38.015Z,10.63
2019-01-11T11:08:06.779Z,11.03
2019-01-11T11:10:35.608Z,11.30
2019-01-11T11:13:04.348Z,11.70
2019-01-11T11:15:33.011Z,11.10
2019-01-11T11:18:03.120Z,12.07
2019-01-11T11:20:31.696Z,12.28
2019-01-11T11:23:00.339Z,12.35
2019-01-11T11:25:30.081Z,11.55
2019-01-11T11:27:58.692Z,12.15
2019-01-11T11:30:27.201Z,12.80
2019-01-11T11:32:56.270Z,12.23
2019-01-11T11:35:24.992Z,14.38
2019-01-11T11:37:54.027Z,12.00
2019-01-11T11:40:23.754Z,11.25
2019-01-11T11:42:53.227Z,10.45
2019-01-11T11:45:21.935Z,11.48
2019-01-11T11:47:50.493Z,11.43
2019-01-11T11:50:19.655Z,11.55
2019-01-11T11:52:53.703Z,10.08
2019-01-11T11:55:27.259Z,12.33
2019-01-11T11:57:57.810Z,13.15
2019-01-11T12:00:28.113Z,11.90
2019-01-11T12:02:56.801Z,10.85
2019-01-11T12:05:28.907Z,12.75
2019-01-11T12:07:57.528Z,10.03
2019-01-11T12:10:26.667Z,11.63
2019-01-11T12:12:55.169Z,14.55
2019-01-11T12:15:23.670Z,11.40
2019-01-11T12:17:52.260Z,10.98
2019-01-11T12:20:24.245Z,9.80
2019-01-11T12:22:56.971Z,11.12
2019-01-11T12:25:25.525Z,11.83
2019-01-11T12:27:54.223Z,10.13
2019-01-11T12:30:22.895Z,9.90
2019-01-11T12:32:53.154Z,9.58
2019-01-11T12:35:21.737Z,10.53
2019-01-11T12:37:53.230Z,10.90
2019-01-11T12:40:24.305Z,11.10
2019-01-11T12:42:52.982Z,9.83
2019-01-11T12:45:23.648Z,9.83
2019-01-11T12:47:52.283Z,9.23
2019-01-11T12:50:23.246Z,11.50
2019-01-11T12:52:51.973Z,9.90
2019-01-11T12:55:20.649Z,10.58
2019-01-11T12:57:49.421Z,9.00
2019-01-11T13:00:19.747Z,10.10
2019-01-11T13:02:51.910Z,13.95
2019-01-11T13:05:24.001Z,9.93
2019-01-11T13:07:54.225Z,12.68
2019-01-11T13:10:23.740Z,10.58
2019-01-11T13:12:53.982Z,11.80
2019-01-11T13:15:32.903Z,7.30
2019-01-11T13:18:04.833Z,13.98
2019-01-11T13:20:36.771Z,13.40
2019-01-11T13:23:09.451Z,15.13
2019-01-11T13:25:40.623Z,15.20
2019-01-11T13:28:09.229Z,13.43
2019-01-11T13:30:40.945Z,22.62
2019-01-11T13:33:10.678Z,18.20
2019-01-11T13:35:39.346Z,16.67
2019-01-11T13:38:08.138Z,22.20
2019-01-11T13:40:39.880Z,19.25
2019-01-11T13:43:14.584Z,12.68
2019-01-11T13:45:43.145Z,21.27
2019-01-11T13:48:13.390Z,12.85
2019-01-11T13:50:42.621Z,26.00
2019-01-11T13:53:11.431Z,27.22
2019-01-11T13:55:40.091Z,20.37
2019-01-11T13:58:11.353Z,19.80
2019-01-11T14:00:52.687Z,27.32
2019-01-11T14:03:17.715Z,23.45
2019-01-11T14:05:48.881Z,21.87
2019-01-11T14:08:20.262Z,23.47
2019-01-11T14:10:58.841Z,18.92
2019-01-11T14:19:44.616Z,16.00
2019-01-11T14:22:22.705Z,19.65
2019-01-11T14:24:52.354Z,21.73
2019-01-11T14:31:23.988Z,14.60
2019-01-11T14:43:55.995Z,14.40
2019-01-11T15:01:55.248Z,19.00
2019-01-11T15:20:23.163Z,20.50
